Terminal Aerodrome Forecast
Issued by NWS Blacksburg, VA

Current Version | Previous Version | Text Only | Print | Product List | Glossary Off
Versions: 1 2 3 4 5 6 7 8 9 10 11 12 13 14 15 16 17 18 19 20 21 22 23 24 25 26 27 28 29 30 31 32

000
FTUS41 KRNK 300536
TAFBLF
TAF
KBLF 300536Z 3006/3106 00000KT P6SM OVC110
     FM300800 00000KT P6SM VCSH SCT030 OVC080
      TEMPO 3009/3011 4SM BR BKN030
     FM301200 VRB03KT P6SM SCT025 OVC100
     FM301600 34006KT P6SM BKN035
     FM310000 00000KT P6SM SCT045 BKN250=

USA.gov is the U.S. government's official web portal to all federal, state and local government web resources and services.